Time,TemperatureF,DewpointF,PressureIn,WindDirection,WindDirectionDegrees,WindSpeedMPH,WindSpeedGustMPH,Humidity,HourlyPrecipIn,Conditions,Clouds,dailyrainin,SoftwareType,DateUTC
2013-06-19 00:01:00,68.0,64.0,-100.00,East,90,2.0,4.0,85,0.00,,,-99.99,,2013-06-19 05:01:00,
2013-06-19 00:11:00,68.0,64.0,-100.00,East,85,2.0,4.0,86,0.00,,,-99.99,,2013-06-19 05:11:00,
2013-06-19 00:22:00,68.0,64.0,-100.00,East,85,2.0,4.0,86,0.00,,,-99.99,,2013-06-19 05:22:00,
2013-06-19 00:32:00,67.0,64.0,-100.00,East,85,2.0,3.0,88,0.00,,,-99.99,,2013-06-19 05:32:00,
2013-06-19 00:42:00,67.0,64.0,-100.00,East,90,2.0,2.0,90,0.00,,,-99.99,,2013-06-19 05:42:00,
2013-06-19 00:52:00,67.0,64.0,-100.00,ENE,70,2.0,4.0,91,0.00,,,-99.99,,2013-06-19 05:52:00,
2013-06-19 01:02:00,67.0,64.0,-100.00,ENE,70,2.0,4.0,91,0.00,,,-99.99,,2013-06-19 06:02:00,
2013-06-19 01:11:00,66.0,64.0,-100.00,ENE,65,2.0,2.0,92,0.00,,,-99.99,,2013-06-19 06:11:00,
2013-06-19 01:22:00,66.0,64.0,-100.00,ENE,60,2.0,3.0,93,0.00,,,-99.99,,2013-06-19 06:22:00,
2013-06-19 01:33:00,66.0,64.0,-100.00,ENE,60,2.0,3.0,93,0.00,,,-99.99,,2013-06-19 06:33:00,
2013-06-19 01:42:00,65.0,63.0,-100.00,ENE,60,3.0,4.0,94,0.00,,,-99.99,,2013-06-19 06:42:00,
2013-06-19 01:52:00,65.0,64.0,-100.00,ENE,70,4.0,6.0,95,0.00,,,-99.99,,2013-06-19 06:52:00,
2013-06-19 02:01:00,65.0,64.0,-100.00,ENE,75,2.0,4.0,95,0.00,,,-99.99,,2013-06-19 07:01:00,
2013-06-19 02:11:00,64.0,63.0,-100.00,ESE,110,1.0,2.0,95,0.00,,,-99.99,,2013-06-19 07:11:00,
2013-06-19 02:22:00,64.0,63.0,-100.00,ESE,110,1.0,2.0,95,0.00,,,-99.99,,2013-06-19 07:22:00,
2013-06-19 02:33:00,64.0,63.0,-100.00,ENE,70,0.0,1.0,96,0.00,,,-99.99,,2013-06-19 07:33:00,
2013-06-19 02:43:00,64.0,63.0,-100.00,East,80,1.0,3.0,96,0.00,,,-99.99,,2013-06-19 07:43:00,
2013-06-19 02:53:00,63.0,63.0,-100.00,ENE,75,2.0,3.0,97,0.00,,,-99.99,,2013-06-19 07:53:00,
2013-06-19 03:02:00,64.0,63.0,-100.00,East,80,3.0,5.0,97,0.00,,,-99.99,,2013-06-19 08:02:00,
2013-06-19 03:11:00,64.0,63.0,-100.00,East,80,3.0,5.0,97,0.00,,,-99.99,,2013-06-19 08:11:00,
2013-06-19 03:22:00,64.0,63.0,-100.00,East,80,2.0,5.0,96,0.00,,,-99.99,,2013-06-19 08:22:00,
2013-06-19 03:33:00,64.0,63.0,-100.00,East,80,2.0,5.0,96,0.00,,,-99.99,,2013-06-19 08:33:00,
2013-06-19 03:43:00,64.0,63.0,-100.00,East,85,2.0,4.0,96,0.00,,,-99.99,,2013-06-19 08:43:00,
2013-06-19 03:54:00,64.0,63.0,-100.00,East,85,2.0,4.0,96,0.00,,,-99.99,,2013-06-19 08:54:00,
2013-06-19 04:02:00,63.0,62.0,-100.00,East,85,1.0,2.0,96,0.00,,,-99.99,,2013-06-19 09:02:00,
2013-06-19 04:11:00,63.0,63.0,-100.00,East,90,3.0,4.0,97,0.00,,,-99.99,,2013-06-19 09:11:00,
2013-06-19 04:22:00,63.0,63.0,-100.00,East,85,3.0,6.0,97,0.00,,,-99.99,,2013-06-19 09:22:00,
2013-06-19 04:34:00,63.0,63.0,-100.00,East,85,3.0,6.0,97,0.00,,,-99.99,,2013-06-19 09:34:00,
2013-06-19 04:43:00,63.0,62.0,-100.00,East,85,3.0,4.0,97,0.00,,,-99.99,,2013-06-19 09:43:00,
2013-06-19 04:53:00,63.0,62.0,-100.00,ENE,75,4.0,6.0,97,0.00,,,-99.99,,2013-06-19 09:53:00,
2013-06-19 05:02:00,63.0,62.0,-100.00,East,80,4.0,6.0,97,0.00,,,-99.99,,2013-06-19 10:02:00,
2013-06-19 05:12:00,63.0,62.0,-100.00,East,80,4.0,6.0,97,0.00,,,-99.99,,2013-06-19 10:12:00,
2013-06-19 05:22:00,63.0,62.0,-100.00,ESE,110,4.0,7.0,97,0.00,,,-99.99,,2013-06-19 10:22:00,
2013-06-19 05:33:00,63.0,62.0,-100.00,ESE,110,4.0,7.0,97,0.00,,,-99.99,,2013-06-19 10:33:00,
2013-06-19 05:42:00,63.0,63.0,-100.00,ESE,110,6.0,9.0,98,0.00,,,-99.99,,2013-06-19 10:42:00,
2013-06-19 05:53:00,63.0,63.0,-100.00,SE,125,4.0,7.0,98,0.00,,,-99.99,,2013-06-19 10:53:00,
2013-06-19 06:02:00,63.0,63.0,-100.00,ESE,115,5.0,7.0,98,0.00,,,-99.99,,2013-06-19 11:02:00,
2013-06-19 06:11:00,63.0,63.0,-100.00,SE,130,3.0,4.0,98,0.00,,,-99.99,,2013-06-19 11:11:00,
2013-06-19 06:22:00,63.0,63.0,-100.00,SE,130,3.0,4.0,98,0.00,,,-99.99,,2013-06-19 11:22:00,
2013-06-19 06:33:00,63.0,63.0,-100.00,SE,140,2.0,6.0,98,0.00,,,-99.99,,2013-06-19 11:33:00,
2013-06-19 06:42:00,63.0,63.0,-100.00,ESE,110,2.0,4.0,98,0.00,,,-99.99,,2013-06-19 11:42:00,
2013-06-19 06:54:00,64.0,63.0,-100.00,SE,135,2.0,4.0,98,0.00,,,-99.99,,2013-06-19 11:54:00,
2013-06-19 07:01:00,64.0,63.0,-100.00,SE,135,2.0,4.0,98,0.00,,,-99.99,,2013-06-19 12:01:00,
2013-06-19 07:12:00,65.0,64.0,-100.00,ESE,115,3.0,4.0,98,0.00,,,-99.99,,2013-06-19 12:12:00,
2013-06-19 07:22:00,66.0,65.0,-100.00,SE,145,2.0,5.0,97,0.00,,,-99.99,,2013-06-19 12:22:00,
2013-06-19 07:34:00,66.0,65.0,-100.00,SE,145,2.0,6.0,97,0.00,,,-99.99,,2013-06-19 12:34:00,
2013-06-19 07:44:00,66.0,65.0,-100.00,SE,145,2.0,6.0,97,0.00,,,-99.99,,2013-06-19 12:44:00,
2013-06-19 07:52:00,67.0,66.0,-100.00,East,90,2.0,6.0,94,0.00,,,-99.99,,2013-06-19 12:52:00,
2013-06-19 08:02:00,68.0,65.0,-100.00,East,85,3.0,7.0,91,0.00,,,-99.99,,2013-06-19 13:02:00,
2013-06-19 08:12:00,68.0,65.0,-100.00,East,85,3.0,7.0,91,0.00,,,-99.99,,2013-06-19 13:12:00,
2013-06-19 08:22:00,68.0,65.0,-100.00,East,80,4.0,6.0,89,0.00,,,-99.99,,2013-06-19 13:22:00,
2013-06-19 08:33:00,68.0,65.0,-100.00,East,80,4.0,6.0,89,0.00,,,-99.99,,2013-06-19 13:33:00,
2013-06-19 08:42:00,69.0,65.0,-100.00,East,85,4.0,6.0,87,0.00,,,-99.99,,2013-06-19 13:42:00,
2013-06-19 08:54:00,70.0,65.0,-100.00,East,90,2.0,6.0,85,0.00,,,-99.99,,2013-06-19 13:54:00,
2013-06-19 09:02:00,71.0,65.0,-100.00,East,90,4.0,7.0,80,0.00,,,-99.99,,2013-06-19 14:02:00,
2013-06-19 09:12:00,73.0,65.0,-100.00,East,80,5.0,7.0,76,0.00,,,-99.99,,2013-06-19 14:12:00,
2013-06-19 09:22:00,73.0,65.0,-100.00,East,80,5.0,7.0,76,0.00,,,-99.99,,2013-06-19 14:22:00,
2013-06-19 09:33:00,73.0,65.0,-100.00,East,95,5.0,7.0,74,0.00,,,-99.99,,2013-06-19 14:33:00,
2013-06-19 09:43:00,76.0,65.0,-100.00,ENE,70,2.0,7.0,68,0.00,,,-99.99,,2013-06-19 14:43:00,
2013-06-19 09:52:00,76.0,64.0,-100.00,East,85,4.0,7.0,66,0.00,,,-99.99,,2013-06-19 14:52:00,
2013-06-19 10:01:00,76.0,64.0,-100.00,East,85,4.0,7.0,66,0.00,,,-99.99,,2013-06-19 15:01:00,
2013-06-19 10:11:00,75.0,65.0,-100.00,East,85,4.0,6.0,69,0.00,,,-99.99,,2013-06-19 15:11:00,
2013-06-19 10:22:00,77.0,66.0,-100.00,East,90,4.0,9.0,67,0.00,,,-99.99,,2013-06-19 15:22:00,
2013-06-19 10:33:00,77.0,66.0,-100.00,East,90,4.0,9.0,67,0.00,,,-99.99,,2013-06-19 15:33:00,
2013-06-19 10:42:00,78.0,66.0,-100.00,ENE,75,6.0,9.0,66,0.00,,,-99.99,,2013-06-19 15:42:00,
2013-06-19 10:53:00,78.0,65.0,-100.00,East,95,5.0,9.0,65,0.00,,,-99.99,,2013-06-19 15:53:00,
2013-06-19 11:01:00,78.0,65.0,-100.00,East,95,5.0,9.0,65,0.00,,,-99.99,,2013-06-19 16:01:00,
2013-06-19 11:11:00,79.0,66.0,-100.00,ENE,75,6.0,11.0,65,0.00,,,-99.99,,2013-06-19 16:11:00,
2013-06-19 11:22:00,79.0,67.0,-100.00,ESE,105,4.0,9.0,65,0.00,,,-99.99,,2013-06-19 16:22:00,
2013-06-19 11:34:00,79.0,67.0,-100.00,ESE,105,4.0,9.0,65,0.00,,,-99.99,,2013-06-19 16:34:00,
2013-06-19 11:43:00,80.0,66.0,-100.00,East,85,4.0,9.0,63,0.00,,,-99.99,,2013-06-19 16:43:00,
2013-06-19 11:52:00,80.0,66.0,-100.00,East,85,4.0,9.0,63,0.00,,,-99.99,,2013-06-19 16:52:00,
2013-06-19 12:02:00,80.0,65.0,-100.00,East,80,7.0,12.0,60,0.00,,,-99.99,,2013-06-19 17:02:00,
2013-06-19 12:12:00,81.0,66.0,-100.00,ESE,105,4.0,10.0,59,0.00,,,-99.99,,2013-06-19 17:12:00,
2013-06-19 12:22:00,81.0,66.0,-100.00,ESE,105,4.0,10.0,59,0.00,,,-99.99,,2013-06-19 17:22:00,
2013-06-19 12:34:00,82.0,65.0,-100.00,East,95,4.0,11.0,57,0.00,,,-99.99,,2013-06-19 17:34:00,
2013-06-19 12:43:00,82.0,65.0,-100.00,East,80,4.0,12.0,56,0.00,,,-99.99,,2013-06-19 17:43:00,
2013-06-19 12:53:00,82.0,65.0,-100.00,East,80,4.0,12.0,56,0.00,,,-99.99,,2013-06-19 17:53:00,
2013-06-19 13:02:00,82.0,64.0,-100.00,ESE,110,6.0,14.0,54,0.00,,,-99.99,,2013-06-19 18:02:00,
2013-06-19 13:11:00,83.0,64.0,-100.00,East,85,6.0,13.0,53,0.00,,,-99.99,,2013-06-19 18:11:00,
2013-06-19 13:24:00,81.0,63.0,-100.00,East,100,4.0,13.0,53,0.00,,,-99.99,,2013-06-19 18:24:00,
2013-06-19 13:33:00,81.0,63.0,-100.00,East,100,4.0,13.0,53,0.00,,,-99.99,,2013-06-19 18:33:00,
2013-06-19 13:44:00,82.0,62.0,-100.00,East,95,5.0,12.0,50,0.00,,,-99.99,,2013-06-19 18:44:00,
2013-06-19 13:53:00,84.0,61.0,-100.00,East,80,6.0,14.0,46,0.00,,,-99.99,,2013-06-19 18:53:00,
2013-06-19 14:01:00,82.0,61.0,-100.00,ENE,75,8.0,12.0,48,0.00,,,-99.99,,2013-06-19 19:01:00,
2013-06-19 14:12:00,82.0,61.0,-100.00,ENE,75,8.0,12.0,48,0.00,,,-99.99,,2013-06-19 19:12:00,
2013-06-19 14:22:00,84.0,63.0,-100.00,East,90,2.0,10.0,48,0.00,,,-99.99,,2013-06-19 19:22:00,
2013-06-19 14:32:00,83.0,62.0,-100.00,East,90,4.0,14.0,48,0.00,,,-99.99,,2013-06-19 19:32:00,
2013-06-19 14:43:00,82.0,61.0,-100.00,East,90,2.0,9.0,49,0.00,,,-99.99,,2013-06-19 19:43:00,
2013-06-19 14:53:00,82.0,61.0,-100.00,East,90,2.0,9.0,49,0.00,,,-99.99,,2013-06-19 19:53:00,
2013-06-19 15:02:00,82.0,61.0,-100.00,ESE,120,4.0,11.0,48,0.00,,,-99.99,,2013-06-19 20:02:00,
2013-06-19 15:11:00,83.0,62.0,-100.00,East,90,3.0,9.0,48,0.00,,,-99.99,,2013-06-19 20:11:00,
2013-06-19 15:22:00,83.0,62.0,-100.00,East,90,3.0,9.0,48,0.00,,,-99.99,,2013-06-19 20:22:00,
2013-06-19 15:33:00,84.0,62.0,-100.00,East,100,3.0,12.0,47,0.00,,,-99.99,,2013-06-19 20:33:00,
2013-06-19 15:42:00,85.0,62.0,-100.00,East,85,5.0,11.0,46,0.00,,,-99.99,,2013-06-19 20:42:00,
2013-06-19 15:52:00,85.0,63.0,-100.00,SE,125,2.0,12.0,48,0.00,,,-99.99,,2013-06-19 20:52:00,
2013-06-19 16:02:00,85.0,63.0,-100.00,SE,125,2.0,12.0,48,0.00,,,-99.99,,2013-06-19 21:02:00,
2013-06-19 16:11:00,85.0,64.0,-100.00,East,100,4.0,11.0,49,0.00,,,-99.99,,2013-06-19 21:11:00,
2013-06-19 16:22:00,84.0,63.0,-100.00,ENE,75,4.0,11.0,49,0.00,,,-99.99,,2013-06-19 21:22:00,
2013-06-19 16:33:00,84.0,63.0,-100.00,ENE,75,4.0,11.0,49,0.00,,,-99.99,,2013-06-19 21:33:00,
2013-06-19 16:44:00,84.0,63.0,-100.00,ESE,105,6.0,14.0,48,0.00,,,-99.99,,2013-06-19 21:44:00,
2013-06-19 16:52:00,84.0,62.0,-100.00,ESE,110,4.0,12.0,46,0.00,,,-99.99,,2013-06-19 21:52:00,
2013-06-19 17:01:00,84.0,62.0,-100.00,ESE,110,4.0,12.0,46,0.00,,,-99.99,,2013-06-19 22:01:00,
2013-06-19 17:11:00,84.0,62.0,-100.00,ESE,120,4.0,14.0,48,0.00,,,-99.99,,2013-06-19 22:11:00,
2013-06-19 17:22:00,82.0,62.0,-100.00,East,100,4.0,11.0,50,0.00,,,-99.99,,2013-06-19 22:22:00,
2013-06-19 17:34:00,82.0,62.0,-100.00,East,100,4.0,11.0,50,0.00,,,-99.99,,2013-06-19 22:34:00,
2013-06-19 17:43:00,81.0,61.0,-100.00,ESE,110,5.0,13.0,49,0.00,,,-99.99,,2013-06-19 22:43:00,
2013-06-19 17:53:00,81.0,61.0,-100.00,ESE,110,5.0,13.0,49,0.00,,,-99.99,,2013-06-19 22:53:00,
2013-06-19 18:02:00,81.0,62.0,-100.00,East,85,4.0,11.0,51,0.00,,,-99.99,,2013-06-19 23:02:00,
2013-06-19 18:12:00,82.0,63.0,-100.00,East,95,4.0,11.0,53,0.00,,,-99.99,,2013-06-19 23:12:00,
2013-06-19 18:23:00,82.0,63.0,-100.00,East,95,4.0,11.0,53,0.00,,,-99.99,,2013-06-19 23:23:00,
2013-06-19 18:33:00,82.0,64.0,-100.00,ESE,115,4.0,9.0,53,0.00,,,-99.99,,2013-06-19 23:33:00,
2013-06-19 18:43:00,81.0,63.0,-100.00,East,100,3.0,10.0,53,0.00,,,-99.99,,2013-06-19 23:43:00,
2013-06-19 18:52:00,82.0,62.0,-100.00,ESE,115,6.0,10.0,51,0.00,,,-99.99,,2013-06-19 23:52:00,
2013-06-19 19:01:00,82.0,62.0,-100.00,ESE,115,6.0,10.0,51,0.00,,,-99.99,,2013-06-20 00:01:00,
2013-06-19 19:12:00,82.0,62.0,-100.00,ESE,105,4.0,11.0,51,0.00,,,-99.99,,2013-06-20 00:12:00,
2013-06-19 19:22:00,81.0,63.0,-100.00,SE,130,2.0,9.0,53,0.00,,,-99.99,,2013-06-20 00:22:00,
2013-06-19 19:33:00,81.0,63.0,-100.00,SE,130,2.0,9.0,53,0.00,,,-99.99,,2013-06-20 00:33:00,
2013-06-19 19:44:00,82.0,63.0,-100.00,ESE,105,3.0,7.0,53,0.00,,,-99.99,,2013-06-20 00:44:00,
2013-06-19 19:52:00,81.0,64.0,-100.00,East,80,2.0,7.0,55,0.00,,,-99.99,,2013-06-20 00:52:00,
2013-06-19 20:02:00,81.0,64.0,-100.00,East,80,2.0,7.0,55,0.00,,,-99.99,,2013-06-20 01:02:00,
2013-06-19 20:11:00,80.0,63.0,-100.00,ENE,75,4.0,7.0,56,0.00,,,-99.99,,2013-06-20 01:11:00,
2013-06-19 20:22:00,79.0,64.0,-100.00,East,80,4.0,11.0,59,0.00,,,-99.99,,2013-06-20 01:22:00,
2013-06-19 20:33:00,79.0,64.0,-100.00,East,80,4.0,11.0,59,0.00,,,-99.99,,2013-06-20 01:33:00,
2013-06-19 20:44:00,79.0,64.0,-100.00,ESE,110,2.0,7.0,60,0.00,,,-99.99,,2013-06-20 01:44:00,
2013-06-19 20:52:00,78.0,64.0,-100.00,ESE,105,2.0,6.0,63,0.00,,,-99.99,,2013-06-20 01:52:00,
2013-06-19 21:02:00,76.0,65.0,-100.00,East,95,2.0,6.0,67,0.00,,,-99.99,,2013-06-20 02:02:00,
2013-06-19 21:11:00,76.0,65.0,-100.00,East,95,2.0,6.0,67,0.00,,,-99.99,,2013-06-20 02:11:00,
2013-06-19 21:24:00,75.0,65.0,-100.00,East,95,2.0,6.0,70,0.00,,,-99.99,,2013-06-20 02:24:00,
2013-06-19 21:34:00,74.0,65.0,-100.00,East,80,2.0,4.0,73,0.00,,,-99.99,,2013-06-20 02:34:00,
2013-06-19 21:43:00,74.0,66.0,-100.00,East,100,2.0,5.0,74,0.00,,,-99.99,,2013-06-20 02:43:00,
2013-06-19 21:52:00,74.0,66.0,-100.00,ENE,75,4.0,6.0,76,0.00,,,-99.99,,2013-06-20 02:52:00,
2013-06-19 22:02:00,74.0,66.0,-100.00,ENE,75,4.0,6.0,76,0.00,,,-99.99,,2013-06-20 03:02:00,
2013-06-19 22:11:00,73.0,66.0,-100.00,East,90,4.0,6.0,76,0.00,,,-99.99,,2013-06-20 03:11:00,
2013-06-19 22:22:00,73.0,66.0,-100.00,East,90,4.0,6.0,76,0.00,,,-99.99,,2013-06-20 03:22:00,
2013-06-19 22:33:00,73.0,65.0,-100.00,East,95,2.0,6.0,77,0.00,,,-99.99,,2013-06-20 03:33:00,
2013-06-19 22:43:00,72.0,65.0,-100.00,East,100,2.0,6.0,78,0.00,,,-99.99,,2013-06-20 03:43:00,
2013-06-19 22:53:00,72.0,65.0,-100.00,East,80,3.0,6.0,79,0.00,,,-99.99,,2013-06-20 03:53:00,
2013-06-19 23:02:00,72.0,65.0,-100.00,East,80,3.0,6.0,79,0.00,,,-99.99,,2013-06-20 04:02:00,
2013-06-19 23:11:00,72.0,65.0,-100.00,East,85,4.0,7.0,79,0.00,,,-99.99,,2013-06-20 04:11:00,
2013-06-19 23:22:00,72.0,65.0,-100.00,East,80,4.0,7.0,79,0.00,,,-99.99,,2013-06-20 04:22:00,
2013-06-19 23:34:00,72.0,65.0,-100.00,East,80,4.0,7.0,79,0.00,,,-99.99,,2013-06-20 04:34:00,
2013-06-19 23:43:00,71.0,65.0,-100.00,East,90,3.0,7.0,80,0.00,,,-99.99,,2013-06-20 04:43:00,
2013-06-19 23:53:00,71.0,65.0,-100.00,East,95,2.0,8.0,80,0.00,,,-99.99,,2013-06-20 04:53:00,